Home > Products > Valid Products > TAF

000
FTUS44 KMRX 012321
TAFTRI
TAF
KTRI 012321Z 0200/0224 21007KT P6SM VCSH SCT008 BKN025 OVC100
      TEMPO 0200/0203 3SM SHRA BR BKN008 OVC015
     FM020800 VRB03KT 6SM BR VCTS BKN025CB
     FM021600 24005KT P6SM VCTS SCT025CB BKN100
     FM022100 23010KT 4SM -TSRA BR BKN030CB OVC060=



000
FTUS44 KMRX 012321
TAFTYS
TAF
KTYS 012321Z 0200/0224 22010KT P6SM VCSH SCT040 OVC100
     FM020500 23007KT P6SM SCT025 BKN080
     FM020900 22006KT 6SM BR VCTS BKN025CB
     FM021600 23010KT P6SM VCTS SCT025CB BKN100
     FM022100 23012G22KT 4SM -TSRA BKN030CB OVC060=



000
FTUS44 KMRX 012321
TAFCHA
TAF
KCHA 012321Z 0200/0224 17005KT P6SM VCTS SCT040CB OVC080
      TEMPO 0200/0202 4SM -SHRA BR SCT010 OVC035
     FM020200 VRB03KT P6SM SCT025 BKN090
     FM020900 VRB03KT P6SM VCTS BKN025CB
     FM021600 22007KT P6SM VCTS SCT025CB BKN100
     FM022000 21012KT 3SM TSRA BR BKN025CB OVC050=



000
FTUS44 KMRX 012321
TAFTRI
TAF
KTRI 012321Z 0200/0224 21007KT P6SM VCSH SCT008 BKN025 OVC100
      TEMPO 0200/0203 3SM SHRA BR BKN008 OVC015
     FM020800 VRB03KT 6SM BR VCTS BKN025CB
     FM021600 24005KT P6SM VCTS SCT025CB BKN100
     FM022100 23010KT 4SM -TSRA BR BKN030CB OVC060=



000
FTUS44 KMRX 012321
TAFCHA
TAF
KCHA 012321Z 0200/0224 17005KT P6SM VCTS SCT040CB OVC080
      TEMPO 0200/0202 4SM -SHRA BR SCT010 OVC035
     FM020200 VRB03KT P6SM SCT025 BKN090
     FM020900 VRB03KT P6SM VCTS BKN025CB
     FM021600 22007KT P6SM VCTS SCT025CB BKN100
     FM022000 21012KT 3SM TSRA BR BKN025CB OVC050=



000
FTUS44 KMRX 012321
TAFTYS
TAF
KTYS 012321Z 0200/0224 22010KT P6SM VCSH SCT040 OVC100
     FM020500 23007KT P6SM SCT025 BKN080
     FM020900 22006KT 6SM BR VCTS BKN025CB
     FM021600 23010KT P6SM VCTS SCT025CB BKN100
     FM022100 23012G22KT 4SM -TSRA BKN030CB OVC060=



000
FTUS44 KMRX 012321
TAFTYS
TAF
KTYS 012321Z 0200/0224 22010KT P6SM VCSH SCT040 OVC100
     FM020500 23007KT P6SM SCT025 BKN080
     FM020900 22006KT 6SM BR VCTS BKN025CB
     FM021600 23010KT P6SM VCTS SCT025CB BKN100
     FM022100 23012G22KT 4SM -TSRA BKN030CB OVC060=



000
FTUS44 KMRX 012321
TAFTRI
TAF
KTRI 012321Z 0200/0224 21007KT P6SM VCSH SCT008 BKN025 OVC100
      TEMPO 0200/0203 3SM SHRA BR BKN008 OVC015
     FM020800 VRB03KT 6SM BR VCTS BKN025CB
     FM021600 24005KT P6SM VCTS SCT025CB BKN100
     FM022100 23010KT 4SM -TSRA BR BKN030CB OVC060=



000
FTUS44 KMRX 012321
TAFCHA
TAF
KCHA 012321Z 0200/0224 17005KT P6SM VCTS SCT040CB OVC080
      TEMPO 0200/0202 4SM -SHRA BR SCT010 OVC035
     FM020200 VRB03KT P6SM SCT025 BKN090
     FM020900 VRB03KT P6SM VCTS BKN025CB
     FM021600 22007KT P6SM VCTS SCT025CB BKN100
     FM022000 21012KT 3SM TSRA BR BKN025CB OVC050=



000
FTUS44 KMRX 011726
TAFTYS
TAF
KTYS 011726Z 0118/0218 22010KT P6SM VCTS SCT025CB BKN120
      TEMPO 0119/0123 3SM TSRA BR BKN025CB OVC100
     FM020000 23007KT P6SM VCTS SCT025CB BKN070
     FM020900 22006KT 6SM BR VCTS BKN025CB
     FM021600 23010KT P6SM VCTS SCT025CB BKN100=



000
FTUS44 KMRX 011726
TAFCHA
TAF
KCHA 011726Z 0118/0218 21007KT P6SM VCTS SCT030CB BKN120
      TEMPO 0118/0122 3SM TSRA BR BKN020CB OVC100
     FM020000 VRB03KT P6SM VCTS SCT025CB BKN070
     FM020300 VRB03KT P6SM SCT025 BKN090
     FM021000 VRB03KT P6SM VCTS BKN025CB
     FM021600 22007KT P6SM VCTS SCT025CB BKN100=



000
FTUS44 KMRX 011726
TAFTRI
TAF
KTRI 011726Z 0118/0218 24010KT P6SM VCTS SCT025CB BKN120
      TEMPO 0120/0124 4SM TSRA BKN025CB OVC090
     FM020000 25004KT P6SM VCTS SCT020CB BKN070
     FM020800 VRB03KT 6SM BR VCTS BKN025CB
     FM021600 24005KT P6SM VCTS SCT025CB BKN100=



000
FTUS44 KMRX 011726
TAFCHA
TAF
KCHA 011726Z 0118/0218 21007KT P6SM VCTS SCT030CB BKN120
      TEMPO 0118/0122 3SM TSRA BR BKN020CB OVC100
     FM020000 VRB03KT P6SM VCTS SCT025CB BKN070
     FM020300 VRB03KT P6SM SCT025 BKN090
     FM021000 VRB03KT P6SM VCTS BKN025CB
     FM021600 22007KT P6SM VCTS SCT025CB BKN100=



000
FTUS44 KMRX 011726
TAFTYS
TAF
KTYS 011726Z 0118/0218 22010KT P6SM VCTS SCT025CB BKN120
      TEMPO 0119/0123 3SM TSRA BR BKN025CB OVC100
     FM020000 23007KT P6SM VCTS SCT025CB BKN070
     FM020900 22006KT 6SM BR VCTS BKN025CB
     FM021600 23010KT P6SM VCTS SCT025CB BKN100=



000
FTUS44 KMRX 011726
TAFTRI
TAF
KTRI 011726Z 0118/0218 24010KT P6SM VCTS SCT025CB BKN120
      TEMPO 0120/0124 4SM TSRA BKN025CB OVC090
     FM020000 25004KT P6SM VCTS SCT020CB BKN070
     FM020800 VRB03KT 6SM BR VCTS BKN025CB
     FM021600 24005KT P6SM VCTS SCT025CB BKN100=



000
FTUS44 KMRX 011726
TAFCHA
TAF
KCHA 011726Z 0118/0218 21007KT P6SM VCTS SCT030CB BKN120
      TEMPO 0118/0122 3SM TSRA BR BKN020CB OVC100
     FM020000 VRB03KT P6SM VCTS SCT025CB BKN070
     FM020300 VRB03KT P6SM SCT025 BKN090
     FM021000 VRB03KT P6SM VCTS BKN025CB
     FM021600 22007KT P6SM VCTS SCT025CB BKN100=



000
FTUS44 KMRX 011726
TAFTRI
TAF
KTRI 011726Z 0118/0218 24010KT P6SM VCTS SCT025CB BKN120
      TEMPO 0120/0124 4SM TSRA BKN025CB OVC090
     FM020000 25004KT P6SM VCTS SCT020CB BKN070
     FM020800 VRB03KT 6SM BR VCTS BKN025CB
     FM021600 24005KT P6SM VCTS SCT025CB BKN100=



000
FTUS44 KMRX 011726
TAFTYS
TAF
KTYS 011726Z 0118/0218 22010KT P6SM VCTS SCT025CB BKN120
      TEMPO 0119/0123 3SM TSRA BR BKN025CB OVC100
     FM020000 23007KT P6SM VCTS SCT025CB BKN070
     FM020900 22006KT 6SM BR VCTS BKN025CB
     FM021600 23010KT P6SM VCTS SCT025CB BKN100=



000
FTUS44 KMRX 011509 AAA
TAFCHA
TAF AMD
KCHA 011509Z 0115/0212 19004KT P6SM SCT025 BKN250
      TEMPO 0115/0117 BKN025
     FM011700 22008KT P6SM VCTS SCT045CB BKN120
     FM012000 24011KT P6SM VCTS BKN045CB
      TEMPO 0120/0124 4SM -TSRA OVC040CB
     FM020000 21005KT P6SM VCTS BKN035CB
     FM020600 VRB04KT P6SM SCT050 BKN090=



000
FTUS44 KMRX 011509 AAA
TAFCHA
TAF AMD
KCHA 011509Z 0115/0212 19004KT P6SM SCT025 BKN250
      TEMPO 0115/0117 BKN025
     FM011700 22008KT P6SM VCTS SCT045CB BKN120
     FM012000 24011KT P6SM VCTS BKN045CB
      TEMPO 0120/0124 4SM -TSRA OVC040CB
     FM020000 21005KT P6SM VCTS BKN035CB
     FM020600 VRB04KT P6SM SCT050 BKN090=



000
FTUS44 KMRX 011358 AAB
TAFTRI
TAF AMD
KTRI 011358Z 0114/0212 25005KT P6SM OVC015
     FM011600 25007KT P6SM BKN035
     FM011800 24011KT P6SM VCTS SCT040CB BKN120
     FM012200 23008KT P6SM VCTS BKN045CB
      TEMPO 0123/0203 4SM -TSRA BKN040CB
     FM020400 VRB02KT P6SM VCSH SCT035 BKN070=



000
FTUS44 KMRX 011358 AAB
TAFTRI
TAF AMD
KTRI 011358Z 0114/0212 25005KT P6SM OVC015
     FM011600 25007KT P6SM BKN035
     FM011800 24011KT P6SM VCTS SCT040CB BKN120
     FM012200 23008KT P6SM VCTS BKN045CB
      TEMPO 0123/0203 4SM -TSRA BKN040CB
     FM020400 VRB02KT P6SM VCSH SCT035 BKN070=



000
FTUS44 KMRX 011358 AAB
TAFTRI
TAF AMD
KTRI 011358Z 0114/0212 25005KT P6SM OVC015
     FM011600 25007KT P6SM BKN035
     FM011800 24011KT P6SM VCTS SCT040CB BKN120
     FM012200 23008KT P6SM VCTS BKN045CB
      TEMPO 0123/0203 4SM -TSRA BKN040CB
     FM020400 VRB02KT P6SM VCSH SCT035 BKN070=



000
FTUS44 KMRX 011358 AAB
TAFTRI
TAF AMD
KTRI 011358Z 0114/0212 25005KT P6SM OVC015
     FM011600 25007KT P6SM BKN035
     FM011800 24011KT P6SM VCTS SCT040CB BKN120
     FM012200 23008KT P6SM VCTS BKN045CB
      TEMPO 0123/0203 4SM -TSRA BKN040CB
     FM020400 VRB02KT P6SM VCSH SCT035 BKN070=



000
FTUS44 KMRX 011208 AAA
TAFTRI
TAF AMD
KTRI 011208Z 0112/0212 21003KT P6SM OVC008
     FM011400 23005KT P6SM BKN035
     FM011700 24011KT P6SM VCTS SCT040CB BKN120
     FM012200 23008KT P6SM VCTS BKN045CB
      TEMPO 0123/0203 4SM -TSRA BKN040CB
     FM020400 VRB02KT P6SM VCSH SCT035 BKN070=



000
FTUS44 KMRX 011208 AAA
TAFTRI
TAF AMD
KTRI 011208Z 0112/0212 21003KT P6SM OVC008
     FM011400 23005KT P6SM BKN035
     FM011700 24011KT P6SM VCTS SCT040CB BKN120
     FM012200 23008KT P6SM VCTS BKN045CB
      TEMPO 0123/0203 4SM -TSRA BKN040CB
     FM020400 VRB02KT P6SM VCSH SCT035 BKN070=



000
FTUS44 KMRX 011208 AAA
TAFTRI
TAF AMD
KTRI 011208Z 0112/0212 21003KT P6SM OVC008
     FM011400 23005KT P6SM BKN035
     FM011700 24011KT P6SM VCTS SCT040CB BKN120
     FM012200 23008KT P6SM VCTS BKN045CB
      TEMPO 0123/0203 4SM -TSRA BKN040CB
     FM020400 VRB02KT P6SM VCSH SCT035 BKN070=



000
FTUS44 KMRX 011208 AAA
TAFTRI
TAF AMD
KTRI 011208Z 0112/0212 21003KT P6SM OVC008
     FM011400 23005KT P6SM BKN035
     FM011700 24011KT P6SM VCTS SCT040CB BKN120
     FM012200 23008KT P6SM VCTS BKN045CB
      TEMPO 0123/0203 4SM -TSRA BKN040CB
     FM020400 VRB02KT P6SM VCSH SCT035 BKN070=



000
FTUS44 KMRX 011136
TAFCHA
TAF
KCHA 011136Z 0112/0212 22004KT P6SM SCT025 BKN250
     FM011600 23008KT P6SM VCTS SCT045CB BKN120
     FM012000 24011KT P6SM VCTS BKN045CB
      TEMPO 0120/0124 4SM -TSRA OVC040CB
     FM020000 21005KT P6SM VCTS BKN035CB
     FM020600 VRB04KT P6SM SCT050 BKN090=



000
FTUS44 KMRX 011136
TAFTRI
TAF
KTRI 011136Z 0112/0212 21003KT 6SM BR OVC010
     FM011400 23005KT P6SM BKN035
     FM011700 24011KT P6SM VCTS SCT040CB BKN120
     FM012200 23008KT P6SM VCTS BKN045CB
      TEMPO 0123/0203 4SM -TSRA BKN040CB
     FM020400 VRB02KT P6SM VCSH SCT035 BKN070=



000
FTUS44 KMRX 011136
TAFTYS
TAF
KTYS 011136Z 0112/0212 23010KT P6SM SCT025 BKN030
     FM011300 23010KT P6SM BKN035
     FM011700 24010KT P6SM VCTS SCT045CB BKN100
     FM012100 25012KT P6SM VCTS BKN045CB
      TEMPO 0121/0201 4SM -TSRA OVC035CB
     FM020200 23006KT P6SM VCTS BKN040CB
     FM020600 24003KT P6SM SCT035 BKN080=



000
FTUS44 KMRX 011136
TAFCHA
TAF
KCHA 011136Z 0112/0212 22004KT P6SM SCT025 BKN250
     FM011600 23008KT P6SM VCTS SCT045CB BKN120
     FM012000 24011KT P6SM VCTS BKN045CB
      TEMPO 0120/0124 4SM -TSRA OVC040CB
     FM020000 21005KT P6SM VCTS BKN035CB
     FM020600 VRB04KT P6SM SCT050 BKN090=



000
FTUS44 KMRX 011136
TAFTRI
TAF
KTRI 011136Z 0112/0212 21003KT 6SM BR OVC010
     FM011400 23005KT P6SM BKN035
     FM011700 24011KT P6SM VCTS SCT040CB BKN120
     FM012200 23008KT P6SM VCTS BKN045CB
      TEMPO 0123/0203 4SM -TSRA BKN040CB
     FM020400 VRB02KT P6SM VCSH SCT035 BKN070=



000
FTUS44 KMRX 011136
TAFTYS
TAF
KTYS 011136Z 0112/0212 23010KT P6SM SCT025 BKN030
     FM011300 23010KT P6SM BKN035
     FM011700 24010KT P6SM VCTS SCT045CB BKN100
     FM012100 25012KT P6SM VCTS BKN045CB
      TEMPO 0121/0201 4SM -TSRA OVC035CB
     FM020200 23006KT P6SM VCTS BKN040CB
     FM020600 24003KT P6SM SCT035 BKN080=



000
FTUS44 KMRX 011136
TAFTRI
TAF
KTRI 011136Z 0112/0212 21003KT 6SM BR OVC010
     FM011400 23005KT P6SM BKN035
     FM011700 24011KT P6SM VCTS SCT040CB BKN120
     FM012200 23008KT P6SM VCTS BKN045CB
      TEMPO 0123/0203 4SM -TSRA BKN040CB
     FM020400 VRB02KT P6SM VCSH SCT035 BKN070=



000
FTUS44 KMRX 011136
TAFTYS
TAF
KTYS 011136Z 0112/0212 23010KT P6SM SCT025 BKN030
     FM011300 23010KT P6SM BKN035
     FM011700 24010KT P6SM VCTS SCT045CB BKN100
     FM012100 25012KT P6SM VCTS BKN045CB
      TEMPO 0121/0201 4SM -TSRA OVC035CB
     FM020200 23006KT P6SM VCTS BKN040CB
     FM020600 24003KT P6SM SCT035 BKN080=



000
FTUS44 KMRX 011136
TAFCHA
TAF
KCHA 011136Z 0112/0212 22004KT P6SM SCT025 BKN250
     FM011600 23008KT P6SM VCTS SCT045CB BKN120
     FM012000 24011KT P6SM VCTS BKN045CB
      TEMPO 0120/0124 4SM -TSRA OVC040CB
     FM020000 21005KT P6SM VCTS BKN035CB
     FM020600 VRB04KT P6SM SCT050 BKN090=



000
FTUS44 KMRX 011136
TAFCHA
TAF
KCHA 011136Z 0112/0212 22004KT P6SM SCT025 BKN250
     FM011600 23008KT P6SM VCTS SCT045CB BKN120
     FM012000 24011KT P6SM VCTS BKN045CB
      TEMPO 0120/0124 4SM -TSRA OVC040CB
     FM020000 21005KT P6SM VCTS BKN035CB
     FM020600 VRB04KT P6SM SCT050 BKN090=



000
FTUS44 KMRX 011136
TAFTRI
TAF
KTRI 011136Z 0112/0212 21003KT 6SM BR OVC010
     FM011400 23005KT P6SM BKN035
     FM011700 24011KT P6SM VCTS SCT040CB BKN120
     FM012200 23008KT P6SM VCTS BKN045CB
      TEMPO 0123/0203 4SM -TSRA BKN040CB
     FM020400 VRB02KT P6SM VCSH SCT035 BKN070=



000
FTUS44 KMRX 011136
TAFTYS
TAF
KTYS 011136Z 0112/0212 23010KT P6SM SCT025 BKN030
     FM011300 23010KT P6SM BKN035
     FM011700 24010KT P6SM VCTS SCT045CB BKN100
     FM012100 25012KT P6SM VCTS BKN045CB
      TEMPO 0121/0201 4SM -TSRA OVC035CB
     FM020200 23006KT P6SM VCTS BKN040CB
     FM020600 24003KT P6SM SCT035 BKN080=



000
FTUS44 KMRX 011004 AAB
TAFTRI
TAF AMD
KTRI 011004Z 0110/0206 22003KT P6SM OVC012
     FM011300 23005KT P6SM SCT015
     FM011600 24008KT P6SM SCT035 BKN200
     FM012000 24011KT P6SM VCTS SCT050CB BKN150
     FM020000 24010KT P6SM VCTS BKN040CB=



000
FTUS44 KMRX 011004 AAB
TAFTRI
TAF AMD
KTRI 011004Z 0110/0206 22003KT P6SM OVC012
     FM011300 23005KT P6SM SCT015
     FM011600 24008KT P6SM SCT035 BKN200
     FM012000 24011KT P6SM VCTS SCT050CB BKN150
     FM020000 24010KT P6SM VCTS BKN040CB=



000
FTUS44 KMRX 011004 AAB
TAFTRI
TAF AMD
KTRI 011004Z 0110/0206 22003KT P6SM OVC012
     FM011300 23005KT P6SM SCT015
     FM011600 24008KT P6SM SCT035 BKN200
     FM012000 24011KT P6SM VCTS SCT050CB BKN150
     FM020000 24010KT P6SM VCTS BKN040CB=



000
FTUS44 KMRX 011004 AAB
TAFTRI
TAF AMD
KTRI 011004Z 0110/0206 22003KT P6SM OVC012
     FM011300 23005KT P6SM SCT015
     FM011600 24008KT P6SM SCT035 BKN200
     FM012000 24011KT P6SM VCTS SCT050CB BKN150
     FM020000 24010KT P6SM VCTS BKN040CB=



000
FTUS44 KMRX 010819 AAA
TAFTRI
TAF AMD
KTRI 010819Z 0108/0206 24004KT P6SM SCT200
     FM010900 00000KT 6SM BR SCT005 SCT200
     FM011300 23005KT P6SM SCT040 BKN200
     FM012000 24011KT P6SM VCTS SCT050CB BKN150
     FM020000 24010KT P6SM VCTS BKN040CB=



000
FTUS44 KMRX 010818 AAA
TAFCHA
TAF AMD
KCHA 010818Z 0108/0206 20003KT P6SM BKN020
     FM011300 22006KT P6SM SCT040 SCT150
     FM011800 23010KT P6SM VCTS SCT050CB BKN120
     FM012000 24011KT P6SM VCTS BKN045CB
     FM020300 VRB03KT P6SM VCSH SCT035 BKN080=



000
FTUS44 KMRX 010818 AAA
TAFCHA
TAF AMD
KCHA 010818Z 0108/0206 20003KT P6SM BKN020
     FM011300 22006KT P6SM SCT040 SCT150
     FM011800 23010KT P6SM VCTS SCT050CB BKN120
     FM012000 24011KT P6SM VCTS BKN045CB
     FM020300 VRB03KT P6SM VCSH SCT035 BKN080=



000
FTUS44 KMRX 010818 AAA
TAFCHA
TAF AMD
KCHA 010818Z 0108/0206 20003KT P6SM BKN020
     FM011300 22006KT P6SM SCT040 SCT150
     FM011800 23010KT P6SM VCTS SCT050CB BKN120
     FM012000 24011KT P6SM VCTS BKN045CB
     FM020300 VRB03KT P6SM VCSH SCT035 BKN080=



000
FTUS44 KMRX 010818 AAA
TAFCHA
TAF AMD
KCHA 010818Z 0108/0206 20003KT P6SM BKN020
     FM011300 22006KT P6SM SCT040 SCT150
     FM011800 23010KT P6SM VCTS SCT050CB BKN120
     FM012000 24011KT P6SM VCTS BKN045CB
     FM020300 VRB03KT P6SM VCSH SCT035 BKN080=



000
FTUS44 KMRX 010535
TAFTYS
TAF
KTYS 010535Z 0106/0206 23006KT P6SM VCTS SCT040CB BKN120
     FM010900 23004KT 6SM BR FEW015 SCT025
     FM011300 23009KT P6SM SCT040 BKN150
     FM011800 24010KT P6SM VCTS SCT045CB BKN100
     FM012100 24012KT P6SM VCTS SCT050CB BKN080
     FM020300 25006KT P6SM VCSH SCT040 BKN120=



000
FTUS44 KMRX 010535
TAFTRI
TAF
KTRI 010535Z 0106/0206 25004KT P6SM SCT250
     FM010800 00000KT 4SM BR SCT005 SCT200
     FM011400 23008KT P6SM SCT040 BKN200
     FM012000 24011KT P6SM VCTS SCT050CB BKN150
     FM020000 24010KT P6SM VCTS BKN040CB=



000
FTUS44 KMRX 010535
TAFCHA
TAF
KCHA 010535Z 0106/0206 VRB04KT P6SM FEW020 BKN250
     FM010800 00000KT 6SM BR SCT080 BKN200
     FM011400 22006KT P6SM SCT040 SCT150
     FM011800 23010KT P6SM VCTS SCT050CB BKN120
     FM012000 24011KT P6SM VCTS BKN045CB
     FM020300 VRB03KT P6SM VCSH SCT035 BKN080=



000
FTUS44 KMRX 010535
TAFTRI
TAF
KTRI 010535Z 0106/0206 25004KT P6SM SCT250
     FM010800 00000KT 4SM BR SCT005 SCT200
     FM011400 23008KT P6SM SCT040 BKN200
     FM012000 24011KT P6SM VCTS SCT050CB BKN150
     FM020000 24010KT P6SM VCTS BKN040CB=



000
FTUS44 KMRX 010535
TAFCHA
TAF
KCHA 010535Z 0106/0206 VRB04KT P6SM FEW020 BKN250
     FM010800 00000KT 6SM BR SCT080 BKN200
     FM011400 22006KT P6SM SCT040 SCT150
     FM011800 23010KT P6SM VCTS SCT050CB BKN120
     FM012000 24011KT P6SM VCTS BKN045CB
     FM020300 VRB03KT P6SM VCSH SCT035 BKN080=



000
FTUS44 KMRX 010535
TAFTYS
TAF
KTYS 010535Z 0106/0206 23006KT P6SM VCTS SCT040CB BKN120
     FM010900 23004KT 6SM BR FEW015 SCT025
     FM011300 23009KT P6SM SCT040 BKN150
     FM011800 24010KT P6SM VCTS SCT045CB BKN100
     FM012100 24012KT P6SM VCTS SCT050CB BKN080
     FM020300 25006KT P6SM VCSH SCT040 BKN120=



000
FTUS44 KMRX 010535
TAFTRI
TAF
KTRI 010535Z 0106/0206 25004KT P6SM SCT250
     FM010800 00000KT 4SM BR SCT005 SCT200
     FM011400 23008KT P6SM SCT040 BKN200
     FM012000 24011KT P6SM VCTS SCT050CB BKN150
     FM020000 24010KT P6SM VCTS BKN040CB=



000
FTUS44 KMRX 010535
TAFTYS
TAF
KTYS 010535Z 0106/0206 23006KT P6SM VCTS SCT040CB BKN120
     FM010900 23004KT 6SM BR FEW015 SCT025
     FM011300 23009KT P6SM SCT040 BKN150
     FM011800 24010KT P6SM VCTS SCT045CB BKN100
     FM012100 24012KT P6SM VCTS SCT050CB BKN080
     FM020300 25006KT P6SM VCSH SCT040 BKN120=



000
FTUS44 KMRX 010535
TAFCHA
TAF
KCHA 010535Z 0106/0206 VRB04KT P6SM FEW020 BKN250
     FM010800 00000KT 6SM BR SCT080 BKN200
     FM011400 22006KT P6SM SCT040 SCT150
     FM011800 23010KT P6SM VCTS SCT050CB BKN120
     FM012000 24011KT P6SM VCTS BKN045CB
     FM020300 VRB03KT P6SM VCSH SCT035 BKN080=



000
FTUS44 KMRX 010337 AAA
TAFTYS
TAF AMD
KTYS 010337Z 0104/0124 23008KT P6SM VCTS SCT060CB BKN100
      TEMPO 0104/0106 VRB10G20KT 5SM -TSRA BR BKN040CB
     FM010900 23004KT 5SM BR FEW015 BKN025
     FM011300 23009KT P6SM SCT040 BKN150
     FM011800 24010KT P6SM BKN250
     FM012100 24012KT P6SM VCTS SCT050CB BKN100=



000
FTUS44 KMRX 010337 AAA
TAFTYS
TAF AMD
KTYS 010337Z 0104/0124 23008KT P6SM VCTS SCT060CB BKN100
      TEMPO 0104/0106 VRB10G20KT 5SM -TSRA BR BKN040CB
     FM010900 23004KT 5SM BR FEW015 BKN025
     FM011300 23009KT P6SM SCT040 BKN150
     FM011800 24010KT P6SM BKN250
     FM012100 24012KT P6SM VCTS SCT050CB BKN100=



000
FTUS44 KMRX 302324
TAFCHA
TAF
KCHA 302324Z 0100/0124 25007KT P6SM VCTS SCT040CB BKN250
     FM010300 VRB04KT P6SM SCT040 BKN090
     FM010800 00000KT 6SM BR SCT080 BKN200
     FM011400 22006KT P6SM SCT050 BKN150
     FM011800 23010KT P6SM BKN250
     FM012000 24011KT P6SM VCTS SCT050CB BKN100=



000
FTUS44 KMRX 302324
TAFTRI
TAF
KTRI 302324Z 0100/0124 25010KT P6SM VCSH SCT030 SCT140 BKN200
     FM010300 25005KT P6SM BKN250
     FM010800 00000KT 4SM BR SCT010 BKN022
     FM011400 25008KT P6SM SCT040 BKN150
     FM011800 25011KT P6SM BKN250=



000
FTUS44 KMRX 302324
TAFTYS
TAF
KTYS 302324Z 0100/0124 VRB05KT P6SM VCSH SCT030 BKN150 OVC250
     FM010200 23005KT P6SM SCT060 BKN100
     FM010900 23004KT 5SM BR FEW015 BKN025
     FM011300 23009KT P6SM SCT040 BKN150
     FM011800 24010KT P6SM BKN250
     FM012100 24012KT P6SM VCTS SCT050CB BKN100=



000
FTUS44 KMRX 302324
TAFTYS
TAF
KTYS 302324Z 0100/0124 VRB05KT P6SM VCSH SCT030 BKN150 OVC250
     FM010200 23005KT P6SM SCT060 BKN100
     FM010900 23004KT 5SM BR FEW015 BKN025
     FM011300 23009KT P6SM SCT040 BKN150
     FM011800 24010KT P6SM BKN250
     FM012100 24012KT P6SM VCTS SCT050CB BKN100=



000
FTUS44 KMRX 302324
TAFCHA
TAF
KCHA 302324Z 0100/0124 25007KT P6SM VCTS SCT040CB BKN250
     FM010300 VRB04KT P6SM SCT040 BKN090
     FM010800 00000KT 6SM BR SCT080 BKN200
     FM011400 22006KT P6SM SCT050 BKN150
     FM011800 23010KT P6SM BKN250
     FM012000 24011KT P6SM VCTS SCT050CB BKN100=



000
FTUS44 KMRX 302324
TAFTRI
TAF
KTRI 302324Z 0100/0124 25010KT P6SM VCSH SCT030 SCT140 BKN200
     FM010300 25005KT P6SM BKN250
     FM010800 00000KT 4SM BR SCT010 BKN022
     FM011400 25008KT P6SM SCT040 BKN150
     FM011800 25011KT P6SM BKN250=



000
FTUS44 KMRX 301941 AAC
TAFTYS
TAF AMD
KTYS 301941Z 3020/0118 23010KT P6SM VCTS SCT028CB OVC035
      TEMPO 3020/3023 VRB14G26KT 3SM TSRA BR BKN028CB
     FM010300 23004KT P6SM SCT060 BKN100
     FM010900 23004KT 6SM BR FEW015 BKN025
     FM011300 23009KT P6SM SCT040 BKN150=



000
FTUS44 KMRX 301941 AAB
TAFTYS
TAF AMD
KTYS 301941Z 3020/0118 23010KT P6SM VCTS SCT028CB OVC035
      TEMPO 3020/3023 VRB14G26KT 1SM TSRA BR BKN028CB
     FM010300 23004KT P6SM SCT060 BKN100
     FM010900 23004KT 6SM BR FEW015 BKN025
     FM011300 23009KT P6SM SCT040 BKN150=



000
FTUS44 KMRX 301941 AAB
TAFTYS
TAF AMD
KTYS 301941Z 3020/0118 23010KT P6SM VCTS SCT028CB OVC035
      TEMPO 3020/3023 VRB14G26KT 1SM TSRA BR BKN028CB
     FM010300 23004KT P6SM SCT060 BKN100
     FM010900 23004KT 6SM BR FEW015 BKN025
     FM011300 23009KT P6SM SCT040 BKN150=



000
FTUS44 KMRX 301941 AAC
TAFTYS
TAF AMD
KTYS 301941Z 3020/0118 23010KT P6SM VCTS SCT028CB OVC035
      TEMPO 3020/3023 VRB14G26KT 3SM TSRA BR BKN028CB
     FM010300 23004KT P6SM SCT060 BKN100
     FM010900 23004KT 6SM BR FEW015 BKN025
     FM011300 23009KT P6SM SCT040 BKN150=



000
FTUS44 KMRX 301844 AAA
TAFTYS
TAF AMD
KTYS 301844Z 3019/0118 23010KT 4SM BR VCTS SCT028CB OVC035
      TEMPO 3019/3023 VRB14G26KT 1SM TSRA BR BKN028CB
     FM010300 23004KT P6SM SCT060 BKN100
     FM010900 23004KT 6SM BR FEW015 BKN025
     FM011300 23009KT P6SM SCT040 BKN150=



000
FTUS44 KMRX 301844 AAA
TAFTYS
TAF AMD
KTYS 301844Z 3019/0118 23010KT 4SM BR VCTS SCT028CB OVC035
      TEMPO 3019/3023 VRB14G26KT 1SM TSRA BR BKN028CB
     FM010300 23004KT P6SM SCT060 BKN100
     FM010900 23004KT 6SM BR FEW015 BKN025
     FM011300 23009KT P6SM SCT040 BKN150=



000
FTUS44 KMRX 301844 AAA
TAFTYS
TAF AMD
KTYS 301844Z 3019/0118 23010KT 4SM BR VCTS SCT028CB OVC035
      TEMPO 3019/3023 VRB14G26KT 1SM TSRA BR BKN028CB
     FM010300 23004KT P6SM SCT060 BKN100
     FM010900 23004KT 6SM BR FEW015 BKN025
     FM011300 23009KT P6SM SCT040 BKN150=



000
FTUS44 KMRX 301724
TAFTRI
TAF
KTRI 301724Z 3018/0118 30010KT P6SM VCTS SCT026CB BKN090
      TEMPO 3021/0101 VRB16G28KT 4SM -TSRA BR SCT026CB BKN035
     FM010300 VRB04KT P6SM BKN040
     FM010800 00000KT 4SM BR SCT010 BKN022
     FM011400 25006KT P6SM SCT040 BKN150=



000
FTUS44 KMRX 301724
TAFCHA
TAF
KCHA 301724Z 3018/0118 20010KT P6SM VCTS SCT050CB BKN100
      TEMPO 3018/3022 VRB16G28KT 4SM -TSRA BR SCT025CB BKN040
     FM010300 VRB04KT P6SM SCT040 BKN090
     FM010800 00000KT P6SM SCT080 BKN200
     FM011400 21006KT P6SM SCT050 BKN150=



000
FTUS44 KMRX 301724
TAFTYS
TAF
KTYS 301724Z 3018/0118 23010KT P6SM SCT028 OVC035
      TEMPO 3018/3020 BKN028
     FM302000 22012KT P6SM VCTS SCT040CB BKN080
      TEMPO 3020/3024 VRB16G28KT 4SM -TSRA SCT028CB BKN040
     FM010300 23004KT P6SM SCT060 BKN100
     FM010900 23004KT 6SM BR FEW015 BKN025
     FM011300 23009KT P6SM SCT040 BKN150=



000
FTUS44 KMRX 301724
TAFTRI
TAF
KTRI 301724Z 3018/0118 30010KT P6SM VCTS SCT026CB BKN090
      TEMPO 3021/0101 VRB16G28KT 4SM -TSRA BR SCT026CB BKN035
     FM010300 VRB04KT P6SM BKN040
     FM010800 00000KT 4SM BR SCT010 BKN022
     FM011400 25006KT P6SM SCT040 BKN150=



000
FTUS44 KMRX 301724
TAFCHA
TAF
KCHA 301724Z 3018/0118 20010KT P6SM VCTS SCT050CB BKN100
      TEMPO 3018/3022 VRB16G28KT 4SM -TSRA BR SCT025CB BKN040
     FM010300 VRB04KT P6SM SCT040 BKN090
     FM010800 00000KT P6SM SCT080 BKN200
     FM011400 21006KT P6SM SCT050 BKN150=



000
FTUS44 KMRX 301724
TAFTYS
TAF
KTYS 301724Z 3018/0118 23010KT P6SM SCT028 OVC035
      TEMPO 3018/3020 BKN028
     FM302000 22012KT P6SM VCTS SCT040CB BKN080
      TEMPO 3020/3024 VRB16G28KT 4SM -TSRA SCT028CB BKN040
     FM010300 23004KT P6SM SCT060 BKN100
     FM010900 23004KT 6SM BR FEW015 BKN025
     FM011300 23009KT P6SM SCT040 BKN150=



000
FTUS44 KMRX 301650 AAE
TAFCHA
TAF AMD
KCHA 301650Z 3017/0112 24008KT P6SM VCTS SCT035CB BKN040
      TEMPO 3017/3019 VRB15G25KT 4SM -TSRA BR SCT015CB BKN025
     FM302200 23010G16KT P6SM VCTS BKN050CB
     FM010300 25005KT P6SM SCT040 BKN090
     FM010700 21003KT P6SM SCT080 BKN200=



000
FTUS44 KMRX 301650 AAE
TAFCHA
TAF AMD
KCHA 301650Z 3017/0112 24008KT P6SM VCTS SCT035CB BKN040
      TEMPO 3017/3019 VRB15G25KT 4SM -TSRA BR SCT015CB BKN025
     FM302200 23010G16KT P6SM VCTS BKN050CB
     FM010300 25005KT P6SM SCT040 BKN090
     FM010700 21003KT P6SM SCT080 BKN200=



000
FTUS44 KMRX 301559 AAB
TAFTYS
TAF AMD
KTYS 301559Z 3016/0112 23010KT P6SM SCT025 OVC035
      TEMPO 3016/3018 OVC025
     FM301900 22008KT P6SM SCT050 BKN120
     FM302100 23012KT P6SM VCTS BKN050CB
     FM010200 24006KT P6SM SCT060 BKN100
     FM010900 23004KT 6SM BR FEW020 SCT150=



000
FTUS44 KMRX 301349 AAD
TAFCHA
TAF AMD
KCHA 301349Z 3014/0112 24008KT P6SM VCTS SCT035CB BKN080
      TEMPO 3014/3015 4SM -TSRA BR SCT015CB BKN025
     FM301500 23010KT P6SM SCT050 BKN100
     FM302200 23010G16KT P6SM VCTS BKN050CB
     FM010300 25005KT P6SM SCT040 BKN090
     FM010700 21003KT P6SM SCT080 BKN200=



000
FTUS44 KMRX 301349 AAD
TAFCHA
TAF AMD
KCHA 301349Z 3014/0112 24008KT P6SM VCTS SCT035CB BKN080
      TEMPO 3014/3015 4SM -TSRA BR SCT015CB BKN025
     FM301500 23010KT P6SM SCT050 BKN100
     FM302200 23010G16KT P6SM VCTS BKN050CB
     FM010300 25005KT P6SM SCT040 BKN090
     FM010700 21003KT P6SM SCT080 BKN200=



000
FTUS44 KMRX 301331 AAC
TAFCHA
TAF AMD
KCHA 301331Z 3014/0112 24008KT 4SM BR VCTS SCT035CB BKN080
      TEMPO 3014/3015 VRB15G28KT 1SM -TSRA BR SCT015CB BKN020
     FM301500 23010KT P6SM SCT050 BKN100
     FM302200 23010G16KT P6SM VCTS BKN050CB
     FM010300 25005KT P6SM SCT040 BKN090
     FM010700 21003KT P6SM SCT080 BKN200=



000
FTUS44 KMRX 301331 AAC
TAFCHA
TAF AMD
KCHA 301331Z 3014/0112 24008KT 4SM BR VCTS SCT035CB BKN080
      TEMPO 3014/3015 VRB15G28KT 1SM -TSRA BR SCT015CB BKN020
     FM301500 23010KT P6SM SCT050 BKN100
     FM302200 23010G16KT P6SM VCTS BKN050CB
     FM010300 25005KT P6SM SCT040 BKN090
     FM010700 21003KT P6SM SCT080 BKN200=



000
FTUS44 KMRX 301331 AAC
TAFCHA
TAF AMD
KCHA 301331Z 3014/0112 24008KT 4SM BR VCTS SCT035CB BKN080
      TEMPO 3014/3015 VRB15G28KT 1SM -TSRA BR SCT015CB BKN020
     FM301500 23010KT P6SM SCT050 BKN100
     FM302200 23010G16KT P6SM VCTS BKN050CB
     FM010300 25005KT P6SM SCT040 BKN090
     FM010700 21003KT P6SM SCT080 BKN200=



000
FTUS44 KMRX 301329 AAB
TAFCHA
TAF AMD
KCHA 301329Z 3013/0112 24008KT 5SM BR VCTS SCT035CB BKN080
      TEMPO 3013/3014 VRB15G28KT 2SM -TSRA BR SCT015CB BKN025
     FM301400 23010KT P6SM SCT050 BKN100
     FM302200 23010G16KT P6SM VCTS BKN050CB
     FM010300 25005KT P6SM SCT040 BKN090
     FM010700 21003KT P6SM SCT080 BKN200=



000
FTUS44 KMRX 301315 AAA
TAFCHA
TAF AMD
KCHA 301315Z 3013/0112 24008KT P6SM VCTS SCT035CB BKN080
      TEMPO 3013/3014 VRB15G28KT 5SM -TSRA BR SCT015CB BKN035
     FM301400 23010KT P6SM SCT050 BKN100
     FM302200 23010G16KT P6SM VCTS BKN050CB
     FM010300 25005KT P6SM SCT040 BKN090
     FM010700 21003KT P6SM SCT080 BKN200=



000
FTUS44 KMRX 301315 AAA
TAFCHA
TAF AMD
KCHA 301315Z 3013/0112 24008KT P6SM VCTS SCT035CB BKN080
      TEMPO 3013/3014 VRB15G28KT 5SM -TSRA BR SCT015CB BKN035
     FM301400 23010KT P6SM SCT050 BKN100
     FM302200 23010G16KT P6SM VCTS BKN050CB
     FM010300 25005KT P6SM SCT040 BKN090
     FM010700 21003KT P6SM SCT080 BKN200=



000
FTUS44 KMRX 301315 AAA
TAFCHA
TAF AMD
KCHA 301315Z 3013/0112 24008KT P6SM VCTS SCT035CB BKN080
      TEMPO 3013/3014 VRB15G28KT 5SM -TSRA BR SCT015CB BKN035
     FM301400 23010KT P6SM SCT050 BKN100
     FM302200 23010G16KT P6SM VCTS BKN050CB
     FM010300 25005KT P6SM SCT040 BKN090
     FM010700 21003KT P6SM SCT080 BKN200=



000
FTUS44 KMRX 301315 AAA
TAFCHA
TAF AMD
KCHA 301315Z 3013/0112 24008KT P6SM VCTS SCT035CB BKN080
      TEMPO 3013/3014 VRB15G28KT 5SM -TSRA BR SCT015CB BKN035
     FM301400 23010KT P6SM SCT050 BKN100
     FM302200 23010G16KT P6SM VCTS BKN050CB
     FM010300 25005KT P6SM SCT040 BKN090
     FM010700 21003KT P6SM SCT080 BKN200=



000
FTUS44 KMRX 301236 AAA
TAFTYS
TAF AMD
KTYS 301236Z 3013/0112 23005KT P6SM SCT050 BKN100
     FM301500 22008KT P6SM SCT050 SCT120
     FM302100 23012KT P6SM VCTS BKN050CB
     FM010200 24006KT P6SM SCT060 BKN100
     FM010900 23004KT 6SM BR FEW020 SCT150=



000
FTUS44 KMRX 301236 AAA
TAFTYS
TAF AMD
KTYS 301236Z 3013/0112 23005KT P6SM SCT050 BKN100
     FM301500 22008KT P6SM SCT050 SCT120
     FM302100 23012KT P6SM VCTS BKN050CB
     FM010200 24006KT P6SM SCT060 BKN100
     FM010900 23004KT 6SM BR FEW020 SCT150=



000
FTUS44 KMRX 301137
TAFTRI
TAF
KTRI 301137Z 3012/0112 20004KT P6SM VCSH SCT070 BKN100
     FM301500 24010KT P6SM SCT050 SCT100 BKN200
     FM302200 24012KT P6SM VCTS BKN045CB
     FM010300 24005KT P6SM SCT050 BKN150
     FM010800 VRB02KT 5SM BR SCT006 SCT100=



000
FTUS44 KMRX 301137
TAFCHA
TAF
KCHA 301137Z 3012/0112 24008KT P6SM VCTS SCT035CB BKN080
     FM301400 23010KT P6SM SCT050 BKN100
     FM302200 23010G16KT P6SM VCTS BKN050CB
     FM010300 25005KT P6SM SCT040 BKN090
     FM010700 21003KT P6SM SCT080 BKN200=



000
FTUS44 KMRX 301137
TAFTYS
TAF
KTYS 301137Z 3012/0112 23005KT 6SM -SHRA SCT050 BKN100
      TEMPO 3012/3014 3SM TSRA BKN045CB
     FM301430 22008KT P6SM SCT050 SCT120
     FM302100 23012KT P6SM VCTS BKN050CB
     FM010200 24006KT P6SM SCT060 BKN100
     FM010900 23004KT 6SM BR FEW020 SCT150=



000
FTUS44 KMRX 301137
TAFTRI
TAF
KTRI 301137Z 3012/0112 20004KT P6SM VCSH SCT070 BKN100
     FM301500 24010KT P6SM SCT050 SCT100 BKN200
     FM302200 24012KT P6SM VCTS BKN045CB
     FM010300 24005KT P6SM SCT050 BKN150
     FM010800 VRB02KT 5SM BR SCT006 SCT100=



000
FTUS44 KMRX 301137
TAFCHA
TAF
KCHA 301137Z 3012/0112 24008KT P6SM VCTS SCT035CB BKN080
     FM301400 23010KT P6SM SCT050 BKN100
     FM302200 23010G16KT P6SM VCTS BKN050CB
     FM010300 25005KT P6SM SCT040 BKN090
     FM010700 21003KT P6SM SCT080 BKN200=



000
FTUS44 KMRX 301137
TAFTYS
TAF
KTYS 301137Z 3012/0112 23005KT 6SM -SHRA SCT050 BKN100
      TEMPO 3012/3014 3SM TSRA BKN045CB
     FM301430 22008KT P6SM SCT050 SCT120
     FM302100 23012KT P6SM VCTS BKN050CB
     FM010200 24006KT P6SM SCT060 BKN100
     FM010900 23004KT 6SM BR FEW020 SCT150=



000
FTUS44 KMRX 301137
TAFTRI
TAF
KTRI 301137Z 3012/0112 20004KT P6SM VCSH SCT070 BKN100
     FM301500 24010KT P6SM SCT050 SCT100 BKN200
     FM302200 24012KT P6SM VCTS BKN045CB
     FM010300 24005KT P6SM SCT050 BKN150
     FM010800 VRB02KT 5SM BR SCT006 SCT100=



000
FTUS44 KMRX 301137
TAFTYS
TAF
KTYS 301137Z 3012/0112 23005KT 6SM -SHRA SCT050 BKN100
      TEMPO 3012/3014 3SM TSRA BKN045CB
     FM301430 22008KT P6SM SCT050 SCT120
     FM302100 23012KT P6SM VCTS BKN050CB
     FM010200 24006KT P6SM SCT060 BKN100
     FM010900 23004KT 6SM BR FEW020 SCT150=



000
FTUS44 KMRX 301137
TAFCHA
TAF
KCHA 301137Z 3012/0112 24008KT P6SM VCTS SCT035CB BKN080
     FM301400 23010KT P6SM SCT050 BKN100
     FM302200 23010G16KT P6SM VCTS BKN050CB
     FM010300 25005KT P6SM SCT040 BKN090
     FM010700 21003KT P6SM SCT080 BKN200=



000
FTUS44 KMRX 301016 AAB
TAFTYS
TAF AMD
KTYS 301016Z 3010/0106 19007KT 6SM -SHRA BR SCT035 OVC050
      TEMPO 3010/3011 3SM -TSRA BR BKN035CB
     FM301200 23006KT P6SM SCT040 BKN080
     FM301600 23010KT P6SM SCT045 SCT150
     FM302000 23012KT P6SM VCTS BKN050CB
     FM010400 23006KT P6SM BKN050=



000
FTUS44 KMRX 301016 AAB
TAFTYS
TAF AMD
KTYS 301016Z 3010/0106 19007KT 6SM -SHRA BR SCT035 OVC050
      TEMPO 3010/3011 3SM -TSRA BR BKN035CB
     FM301200 23006KT P6SM SCT040 BKN080
     FM301600 23010KT P6SM SCT045 SCT150
     FM302000 23012KT P6SM VCTS BKN050CB
     FM010400 23006KT P6SM BKN050=



000
FTUS44 KMRX 301016 AAB
TAFTYS
TAF AMD
KTYS 301016Z 3010/0106 19007KT 6SM -SHRA BR SCT035 OVC050
      TEMPO 3010/3011 3SM -TSRA BR BKN035CB
     FM301200 23006KT P6SM SCT040 BKN080
     FM301600 23010KT P6SM SCT045 SCT150
     FM302000 23012KT P6SM VCTS BKN050CB
     FM010400 23006KT P6SM BKN050=



000
FTUS44 KMRX 300751 AAA
TAFTYS
TAF AMD
KTYS 300751Z 3008/0106 VRB05KT 6SM -SHRA BR SCT050 OVC100
      TEMPO 3008/3011 3SM TSRA BR BKN045CB
     FM301200 23008KT P6SM BKN060
     FM302000 23012KT P6SM VCTS BKN050CB
     FM010400 23006KT P6SM BKN050=



000
FTUS44 KMRX 300751 AAA
TAFTYS
TAF AMD
KTYS 300751Z 3008/0106 VRB05KT 6SM -SHRA BR SCT050 OVC100
      TEMPO 3008/3011 3SM TSRA BR BKN045CB
     FM301200 23008KT P6SM BKN060
     FM302000 23012KT P6SM VCTS BKN050CB
     FM010400 23006KT P6SM BKN050=



000
FTUS44 KMRX 300751 AAA
TAFTYS
TAF AMD
KTYS 300751Z 3008/0106 VRB05KT 6SM -SHRA BR SCT050 OVC100
      TEMPO 3008/3011 3SM TSRA BR BKN045CB
     FM301200 23008KT P6SM BKN060
     FM302000 23012KT P6SM VCTS BKN050CB
     FM010400 23006KT P6SM BKN050=



000
FTUS44 KMRX 300748 AAA
TAFTRI
TAF AMD
KTRI 300748Z 3008/0106 23003KT P6SM VCSH SCT060 BKN090
     FM300930 VRB02KT 6SM -SHRA SCT050 BKN080
     FM301400 23010KT P6SM BKN050
     FM302000 24012KT P6SM VCTS BKN060CB
     FM010200 24005KT P6SM SCT050=



000
FTUS44 KMRX 300530
TAFCHA
TAF
KCHA 300530Z 3006/0106 19003KT P6SM SCT050 SCT090 BKN200
     FM301200 21006KT P6SM SCT050 BKN100
     FM302000 23010KT P6SM VCTS BKN060CB
     FM010500 21004KT P6SM BKN040=



000
FTUS44 KMRX 300530
TAFTRI
TAF
KTRI 300530Z 3006/0106 23003KT P6SM VCSH SCT060 BKN090
     FM301500 23010KT P6SM BKN050
     FM302000 24012KT P6SM VCTS BKN060CB
     FM010200 24005KT P6SM SCT050=



000
FTUS44 KMRX 300530
TAFTYS
TAF
KTYS 300530Z 3006/0106 23006KT P6SM VCTS FEW070CB BKN100
      TEMPO 3006/3010 TSRA BKN050CB
     FM301000 23008KT P6SM BKN050
     FM302000 23012KT P6SM VCTS BKN060CB
     FM010400 23006KT P6SM BKN050=



000
FTUS44 KMRX 300530
TAFTRI
TAF
KTRI 300530Z 3006/0106 23003KT P6SM VCSH SCT060 BKN090
     FM301500 23010KT P6SM BKN050
     FM302000 24012KT P6SM VCTS BKN060CB
     FM010200 24005KT P6SM SCT050=



000
FTUS44 KMRX 300530
TAFTRI
TAF
KTRI 300530Z 3006/0106 23003KT P6SM VCSH SCT060 BKN090
     FM301500 23010KT P6SM BKN050
     FM302000 24012KT P6SM VCTS BKN060CB
     FM010200 24005KT P6SM SCT050=



000
FTUS44 KMRX 300530
TAFCHA
TAF
KCHA 300530Z 3006/0106 19003KT P6SM SCT050 SCT090 BKN200
     FM301200 21006KT P6SM SCT050 BKN100
     FM302000 23010KT P6SM VCTS BKN060CB
     FM010500 21004KT P6SM BKN040=



000
FTUS44 KMRX 300530
TAFTYS
TAF
KTYS 300530Z 3006/0106 23006KT P6SM VCTS FEW070CB BKN100
      TEMPO 3006/3010 TSRA BKN050CB
     FM301000 23008KT P6SM BKN050
     FM302000 23012KT P6SM VCTS BKN060CB
     FM010400 23006KT P6SM BKN050=



000
FTUS44 KMRX 300530
TAFCHA
TAF
KCHA 300530Z 3006/0106 19003KT P6SM SCT050 SCT090 BKN200
     FM301200 21006KT P6SM SCT050 BKN100
     FM302000 23010KT P6SM VCTS BKN060CB
     FM010500 21004KT P6SM BKN040=



000
FTUS44 KMRX 300530
TAFTYS
TAF
KTYS 300530Z 3006/0106 23006KT P6SM VCTS FEW070CB BKN100
      TEMPO 3006/3010 TSRA BKN050CB
     FM301000 23008KT P6SM BKN050
     FM302000 23012KT P6SM VCTS BKN060CB
     FM010400 23006KT P6SM BKN050=



000
FTUS44 KMRX 300232 AAA
TAFTYS
TAF AMD
KTYS 300232Z 3003/3024 21007KT P6SM VCTS FEW070CB BKN100
      TEMPO 3003/3006 TSRA BKN050CB
     FM300600 22005KT P6SM VCSH BKN060
     FM301300 23012KT P6SM BKN050
     FM302000 23012KT P6SM VCTS BKN050CB=



000
FTUS44 KMRX 300232 AAA
TAFTYS
TAF AMD
KTYS 300232Z 3003/3024 21007KT P6SM VCTS FEW070CB BKN100
      TEMPO 3003/3006 TSRA BKN050CB
     FM300600 22005KT P6SM VCSH BKN060
     FM301300 23012KT P6SM BKN050
     FM302000 23012KT P6SM VCTS BKN050CB=



000
FTUS44 KMRX 300227 AAA
TAFTRI
TAF AMD
KTRI 300227Z 3002/3024 21003KT P6SM VCTS SCT060CB
     FM300400 22003KT P6SM VCSH BKN050
     FM301400 23008KT P6SM BKN050
     FM301900 24012KT P6SM VCTS BKN050CB=



000
FTUS44 KMRX 300227 AAA
TAFTRI
TAF AMD
KTRI 300227Z 3002/3024 21003KT P6SM VCTS SCT060CB
     FM300400 22003KT P6SM VCSH BKN050
     FM301400 23008KT P6SM BKN050
     FM301900 24012KT P6SM VCTS BKN050CB=



000
FTUS44 KMRX 292331
TAFCHA
TAF
KCHA 292331Z 3000/3024 21008KT P6SM BKN090
     FM300200 00000KT P6SM SCT090 BKN200
     FM300800 00000KT P6SM VCSH BKN050
     FM301400 21008KT P6SM SCT050 BKN100
     FM302000 23010KT P6SM VCTS BKN050CB=



000
FTUS44 KMRX 292331
TAFTYS
TAF
KTYS 292331Z 3000/3024 22012KT P6SM BKN100
     FM300200 22006KT P6SM SCT100 BKN200
     FM300600 22005KT P6SM VCSH BKN060
     FM301300 23012KT P6SM BKN050
     FM302000 23012KT P6SM VCTS BKN050CB=



000
FTUS44 KMRX 292331
TAFTYS
TAF
KTYS 292331Z 3000/3024 22012KT P6SM BKN100
     FM300200 22006KT P6SM SCT100 BKN200
     FM300600 22005KT P6SM VCSH BKN060
     FM301300 23012KT P6SM BKN050
     FM302000 23012KT P6SM VCTS BKN050CB=



000
FTUS44 KMRX 292331
TAFTRI
TAF
KTRI 292331Z 3000/3024 22010KT P6SM SCT050
     FM300500 22003KT P6SM VCSH BKN050
     FM301400 23008KT P6SM BKN050
     FM301900 24012KT P6SM VCTS BKN050CB=



000
FTUS44 KMRX 292331
TAFCHA
TAF
KCHA 292331Z 3000/3024 21008KT P6SM BKN090
     FM300200 00000KT P6SM SCT090 BKN200
     FM300800 00000KT P6SM VCSH BKN050
     FM301400 21008KT P6SM SCT050 BKN100
     FM302000 23010KT P6SM VCTS BKN050CB=



000
FTUS44 KMRX 292331
TAFTRI
TAF
KTRI 292331Z 3000/3024 22010KT P6SM SCT050
     FM300500 22003KT P6SM VCSH BKN050
     FM301400 23008KT P6SM BKN050
     FM301900 24012KT P6SM VCTS BKN050CB=



000
FTUS44 KMRX 292129 AAA
TAFCHA
TAF AMD
KCHA 292129Z 2921/3018 23011KT P6SM SCT040
     FM292200 23009KT P6SM SCT050 BKN100
     FM300200 00000KT P6SM SCT050
     FM300900 00000KT P6SM VCSH SCT040 BKN150
     FM301400 22010KT P6SM SCT050 BKN250=



000
FTUS44 KMRX 292129 AAA
TAFCHA
TAF AMD
KCHA 292129Z 2921/3018 23011KT P6SM SCT040
     FM292200 23009KT P6SM SCT050 BKN100
     FM300200 00000KT P6SM SCT050
     FM300900 00000KT P6SM VCSH SCT040 BKN150
     FM301400 22010KT P6SM SCT050 BKN250=



000
FTUS44 KMRX 292128 AAB
TAFTYS
TAF AMD
KTYS 292128Z 2921/3018 21014G22KT P6SM SCT040 BKN060
     FM292300 24012KT P6SM SCT050 BKN150
     FM300200 23003KT P6SM SCT050
     FM301000 VRB03KT P6SM VCSH SCT040 BKN150
     FM301600 23012KT P6SM SCT050 BKN250=



000
FTUS44 KMRX 292128 AAB
TAFTYS
TAF AMD
KTYS 292128Z 2921/3018 21014G22KT P6SM SCT040 BKN060
     FM292300 24012KT P6SM SCT050 BKN150
     FM300200 23003KT P6SM SCT050
     FM301000 VRB03KT P6SM VCSH SCT040 BKN150
     FM301600 23012KT P6SM SCT050 BKN250=



000
FTUS44 KMRX 291856 AAA
TAFTYS
TAF AMD
KTYS 291856Z 2919/3018 21014G22KT P6SM SCT040 BKN060
     FM292200 24012KT P6SM VCTS SCT050CB BKN150
     FM300200 23003KT P6SM SCT050
     FM301000 VRB03KT P6SM VCSH SCT040 BKN150
     FM301600 23012KT P6SM SCT050 BKN250=



000
FTUS44 KMRX 291856 AAA
TAFTYS
TAF AMD
KTYS 291856Z 2919/3018 21014G22KT P6SM SCT040 BKN060
     FM292200 24012KT P6SM VCTS SCT050CB BKN150
     FM300200 23003KT P6SM SCT050
     FM301000 VRB03KT P6SM VCSH SCT040 BKN150
     FM301600 23012KT P6SM SCT050 BKN250=



000
FTUS44 KMRX 291856 AAA
TAFTYS
TAF AMD
KTYS 291856Z 2919/3018 21014G22KT P6SM SCT040 BKN060
     FM292200 24012KT P6SM VCTS SCT050CB BKN150
     FM300200 23003KT P6SM SCT050
     FM301000 VRB03KT P6SM VCSH SCT040 BKN150
     FM301600 23012KT P6SM SCT050 BKN250=



000
FTUS44 KMRX 291856 AAA
TAFTYS
TAF AMD
KTYS 291856Z 2919/3018 21014G22KT P6SM SCT040 BKN060
     FM292200 24012KT P6SM VCTS SCT050CB BKN150
     FM300200 23003KT P6SM SCT050
     FM301000 VRB03KT P6SM VCSH SCT040 BKN150
     FM301600 23012KT P6SM SCT050 BKN250=



000
FTUS44 KMRX 291735
TAFTYS
TAF
KTYS 291735Z 2918/3018 23012KT P6SM SCT040 BKN150
     FM292200 24012KT P6SM VCTS SCT050CB BKN150
     FM300200 23003KT P6SM SCT050
     FM301000 VRB03KT P6SM VCSH SCT040 BKN150
     FM301600 23012KT P6SM SCT050 BKN250=



000
FTUS44 KMRX 291735
TAFTYS
TAF
KTYS 291735Z 2918/3018 23012KT P6SM SCT040 BKN150
     FM292200 24012KT P6SM VCTS SCT050CB BKN150
     FM300200 23003KT P6SM SCT050
     FM301000 VRB03KT P6SM VCSH SCT040 BKN150
     FM301600 23012KT P6SM SCT050 BKN250=



000
FTUS44 KMRX 291735
TAFCHA
TAF
KCHA 291735Z 2918/3018 23011KT P6SM SCT040
     FM292200 23007KT P6SM VCTS SCT050CB BKN150
     FM300200 00000KT P6SM SCT050
     FM300900 00000KT P6SM VCSH SCT040 BKN150
     FM301400 22010KT P6SM SCT050 BKN250=



000
FTUS44 KMRX 291735
TAFTRI
TAF
KTRI 291735Z 2918/3018 22008KT P6SM SCT060 BKN120
     FM292200 23010KT P6SM VCSH SCT050 BKN150
     FM300200 00000KT P6SM SCT050
     FM300800 00000KT P6SM VCSH SCT040 BKN150
     FM301500 24010KT P6SM SCT050 BKN250=



000
FTUS44 KMRX 291735
TAFTRI
TAF
KTRI 291735Z 2918/3018 22008KT P6SM SCT060 BKN120
     FM292200 23010KT P6SM VCSH SCT050 BKN150
     FM300200 00000KT P6SM SCT050
     FM300800 00000KT P6SM VCSH SCT040 BKN150
     FM301500 24010KT P6SM SCT050 BKN250=



000
FTUS44 KMRX 291735
TAFCHA
TAF
KCHA 291735Z 2918/3018 23011KT P6SM SCT040
     FM292200 23007KT P6SM VCTS SCT050CB BKN150
     FM300200 00000KT P6SM SCT050
     FM300900 00000KT P6SM VCSH SCT040 BKN150
     FM301400 22010KT P6SM SCT050 BKN250=



000
FTUS44 KMRX 291120
TAFTYS
TAF
KTYS 291120Z 2912/3012 22008KT P6SM BKN100
     FM291700 23012KT P6SM SCT050 SCT150
     FM300000 23008KT P6SM VCTS BKN050CB
     FM300500 24006KT P6SM SCT080 SCT150 BKN250=



000
FTUS44 KMRX 291120
TAFTRI
TAF
KTRI 291120Z 2912/3012 20003KT P6SM SCT120
     FM291700 23008KT P6SM SCT060
     FM300100 23006KT P6SM VCTS BKN050CB
     FM300600 VRB03KT P6SM SCT040 BKN090=



000
FTUS44 KMRX 291120
TAFTYS
TAF
KTYS 291120Z 2912/3012 22008KT P6SM BKN100
     FM291700 23012KT P6SM SCT050 SCT150
     FM300000 23008KT P6SM VCTS BKN050CB
     FM300500 24006KT P6SM SCT080 SCT150 BKN250=



000
FTUS44 KMRX 291120
TAFCHA
TAF
KCHA 291120Z 2912/3012 VRB02KT P6SM SCT100 SCT250
     FM291400 21005KT P6SM VCSH SCT050 BKN100
     FM291700 22008KT P6SM SCT045 SCT150
     FM292300 23007KT P6SM VCTS BKN050CB
     FM300500 VRB02KT P6SM FEW060 SCT150 BKN250=



000
FTUS44 KMRX 291120
TAFTRI
TAF
KTRI 291120Z 2912/3012 20003KT P6SM SCT120
     FM291700 23008KT P6SM SCT060
     FM300100 23006KT P6SM VCTS BKN050CB
     FM300600 VRB03KT P6SM SCT040 BKN090=



000
FTUS44 KMRX 291120
TAFCHA
TAF
KCHA 291120Z 2912/3012 VRB02KT P6SM SCT100 SCT250
     FM291400 21005KT P6SM VCSH SCT050 BKN100
     FM291700 22008KT P6SM SCT045 SCT150
     FM292300 23007KT P6SM VCTS BKN050CB
     FM300500 VRB02KT P6SM FEW060 SCT150 BKN250=



000
FTUS44 KMRX 291019 AAA
TAFTRI
TAF AMD
KTRI 291019Z 2910/3006 00000KT P6SM SCT200
     FM291300 20003KT P6SM SCT090
     FM291700 22010KT P6SM SCT060
     FM300100 22004KT P6SM BKN060=



000
FTUS44 KMRX 291019 AAA
TAFTRI
TAF AMD
KTRI 291019Z 2910/3006 00000KT P6SM SCT200
     FM291300 20003KT P6SM SCT090
     FM291700 22010KT P6SM SCT060
     FM300100 22004KT P6SM BKN060=



000
FTUS44 KMRX 290520
TAFCHA
TAF
KCHA 290520Z 2906/3006 00000KT P6SM SKC
     FM291500 22010KT P6SM SCT060
     FM300300 22004KT P6SM BKN060=



000
FTUS44 KMRX 290520
TAFTYS
TAF
KTYS 290520Z 2906/3006 00000KT P6SM SKC
     FM291400 22008KT P6SM SCT070
     FM291800 23012G25KT P6SM SCT060
     FM300100 23008KT P6SM BKN060=



000
FTUS44 KMRX 290520
TAFTRI
TAF
KTRI 290520Z 2906/3006 00000KT P6SM SKC
     FM290900 00000KT 4SM BR SCT005
     FM291300 20003KT P6SM SCT090
     FM291700 22010KT P6SM SCT060
     FM300100 22004KT P6SM BKN060=



000
FTUS44 KMRX 290520
TAFCHA
TAF
KCHA 290520Z 2906/3006 00000KT P6SM SKC
     FM291500 22010KT P6SM SCT060
     FM300300 22004KT P6SM BKN060=



000
FTUS44 KMRX 290520
TAFTRI
TAF
KTRI 290520Z 2906/3006 00000KT P6SM SKC
     FM290900 00000KT 4SM BR SCT005
     FM291300 20003KT P6SM SCT090
     FM291700 22010KT P6SM SCT060
     FM300100 22004KT P6SM BKN060=



000
FTUS44 KMRX 290520
TAFTYS
TAF
KTYS 290520Z 2906/3006 00000KT P6SM SKC
     FM291400 22008KT P6SM SCT070
     FM291800 23012G25KT P6SM SCT060
     FM300100 23008KT P6SM BKN060=



000
FTUS44 KMRX 290520
TAFTRI
TAF
KTRI 290520Z 2906/3006 00000KT P6SM SKC
     FM290900 00000KT 4SM BR SCT005
     FM291300 20003KT P6SM SCT090
     FM291700 22010KT P6SM SCT060
     FM300100 22004KT P6SM BKN060=



000
FTUS44 KMRX 290520
TAFCHA
TAF
KCHA 290520Z 2906/3006 00000KT P6SM SKC
     FM291500 22010KT P6SM SCT060
     FM300300 22004KT P6SM BKN060=



000
FTUS44 KMRX 290520
TAFTYS
TAF
KTYS 290520Z 2906/3006 00000KT P6SM SKC
     FM291400 22008KT P6SM SCT070
     FM291800 23012G25KT P6SM SCT060
     FM300100 23008KT P6SM BKN060=



000
FTUS44 KMRX 290520
TAFTRI
TAF
KTRI 290520Z 2906/3006 00000KT P6SM SKC
     FM290900 00000KT 4SM BR SCT005
     FM291300 20003KT P6SM SCT090
     FM291700 22010KT P6SM SCT060
     FM300100 22004KT P6SM BKN060=



000
FTUS44 KMRX 290520
TAFTYS
TAF
KTYS 290520Z 2906/3006 00000KT P6SM SKC
     FM291400 22008KT P6SM SCT070
     FM291800 23012G25KT P6SM SCT060
     FM300100 23008KT P6SM BKN060=



    US Dept of Commerce
    National Oceanic and Atmospheric Administration
    National Weather Service
    1325 East West Highway
    Silver Spring, MD 20910
    Page Author: NWS Internet Services Team
Disclaimer
Information Quality
Credits
Glossary
Privacy Policy
Freedom of Information Act (FOIA)
About Us
Career Opportunities